sensor_id;sensor_type;location;lat;lon;timestamp;P1;durP1;ratioP1;P2;durP2;ratioP2
3006;SDS011;1513;47.650;10.720;2023-02-01T00:02:00;11.60;;;4.60;;
3006;SDS011;1513;47.650;10.720;2023-02-01T00:04:27;8.70;;;3.93;;
3006;SDS011;1513;47.650;10.720;2023-02-01T00:06:53;7.50;;;4.33;;
3006;SDS011;1513;47.650;10.720;2023-02-01T00:09:19;10.50;;;4.27;;
3006;SDS011;1513;47.650;10.720;2023-02-01T00:11:45;7.63;;;3.73;;
3006;SDS011;1513;47.650;10.720;2023-02-01T00:14:11;6.87;;;3.93;;
3006;SDS011;1513;47.650;10.720;2023-02-01T00:16:37;7.47;;;4.40;;
3006;SDS011;1513;47.650;10.720;2023-02-01T00:19:05;6.97;;;4.13;;
3006;SDS011;1513;47.650;10.720;2023-02-01T00:21:39;10.10;;;4.90;;
3006;SDS011;1513;47.650;10.720;2023-02-01T00:24:05;9.00;;;4.50;;
3006;SDS011;1513;47.650;10.720;2023-02-01T00:29:02;14.63;;;4.57;;
3006;SDS011;1513;47.650;10.720;2023-02-01T00:31:31;7.70;;;4.23;;
3006;SDS011;1513;47.650;10.720;2023-02-01T00:33:57;7.50;;;4.10;;
3006;SDS011;1513;47.650;10.720;2023-02-01T00:36:23;9.37;;;4.37;;
3006;SDS011;1513;47.650;10.720;2023-02-01T00:38:48;9.33;;;4.20;;
3006;SDS011;1513;47.650;10.720;2023-02-01T00:41:17;9.43;;;4.70;;
3006;SDS011;1513;47.650;10.720;2023-02-01T00:43:45;6.80;;;3.90;;
3006;SDS011;1513;47.650;10.720;2023-02-01T00:46:13;8.70;;;4.57;;
3006;SDS011;1513;47.650;10.720;2023-02-01T00:48:41;10.13;;;4.80;;
3006;SDS011;1513;47.650;10.720;2023-02-01T00:51:11;7.80;;;4.10;;
3006;SDS011;1513;47.650;10.720;2023-02-01T00:53:41;7.57;;;4.30;;
3006;SDS011;1513;47.650;10.720;2023-02-01T00:56:08;6.20;;;4.00;;
3006;SDS011;1513;47.650;10.720;2023-02-01T00:58:36;8.43;;;4.33;;
3006;SDS011;1513;47.650;10.720;2023-02-01T01:03:41;6.30;;;4.20;;
3006;SDS011;1513;47.650;10.720;2023-02-01T01:06:16;5.00;;;3.73;;
3006;SDS011;1513;47.650;10.720;2023-02-01T01:08:46;8.53;;;4.27;;
3006;SDS011;1513;47.650;10.720;2023-02-01T01:11:13;6.27;;;3.67;;
3006;SDS011;1513;47.650;10.720;2023-02-01T01:13:46;6.10;;;3.60;;
3006;SDS011;1513;47.650;10.720;2023-02-01T01:16:13;5.90;;;3.77;;
3006;SDS011;1513;47.650;10.720;2023-02-01T01:18:39;7.40;;;4.27;;
3006;SDS011;1513;47.650;10.720;2023-02-01T01:21:06;12.70;;;4.63;;
3006;SDS011;1513;47.650;10.720;2023-02-01T01:23:34;8.50;;;4.07;;
3006;SDS011;1513;47.650;10.720;2023-02-01T01:26:04;7.53;;;4.27;;
3006;SDS011;1513;47.650;10.720;2023-02-01T01:28:35;8.80;;;4.10;;
3006;SDS011;1513;47.650;10.720;2023-02-01T01:31:02;7.63;;;4.60;;
3006;SDS011;1513;47.650;10.720;2023-02-01T01:33:28;7.20;;;3.80;;
3006;SDS011;1513;47.650;10.720;2023-02-01T01:35:55;7.27;;;4.00;;
3006;SDS011;1513;47.650;10.720;2023-02-01T01:38:21;6.30;;;3.70;;
3006;SDS011;1513;47.650;10.720;2023-02-01T01:40:47;9.80;;;4.40;;
3006;SDS011;1513;47.650;10.720;2023-02-01T01:43:16;7.80;;;4.17;;
3006;SDS011;1513;47.650;10.720;2023-02-01T01:45:46;7.83;;;4.17;;
3006;SDS011;1513;47.650;10.720;2023-02-01T01:50:47;6.60;;;3.80;;
3006;SDS011;1513;47.650;10.720;2023-02-01T01:53:19;7.93;;;4.10;;
3006;SDS011;1513;47.650;10.720;2023-02-01T01:55:51;13.03;;;4.40;;
3006;SDS011;1513;47.650;10.720;2023-02-01T01:58:21;12.33;;;3.80;;
3006;SDS011;1513;47.650;10.720;2023-02-01T02:00:50;6.83;;;3.70;;
3006;SDS011;1513;47.650;10.720;2023-02-01T02:03:18;9.67;;;4.00;;
3006;SDS011;1513;47.650;10.720;2023-02-01T02:05:50;6.03;;;4.00;;
3006;SDS011;1513;47.650;10.720;2023-02-01T02:08:22;4.93;;;3.50;;
3006;SDS011;1513;47.650;10.720;2023-02-01T02:10:50;8.27;;;3.50;;
3006;SDS011;1513;47.650;10.720;2023-02-01T02:13:38;3.23;;;2.50;;
3006;SDS011;1513;47.650;10.720;2023-02-01T02:42:43;5.70;;;2.93;;
3006;SDS011;1513;47.650;10.720;2023-02-01T02:45:47;8.03;;;3.13;;
3006;SDS011;1513;47.650;10.720;2023-02-01T02:49:09;4.63;;;2.53;;
3006;SDS011;1513;47.650;10.720;2023-02-01T02:51:50;4.67;;;2.73;;
3006;SDS011;1513;47.650;10.720;2023-02-01T02:54:41;6.00;;;2.90;;
3006;SDS011;1513;47.650;10.720;2023-02-01T02:57:14;4.20;;;2.87;;
3006;SDS011;1513;47.650;10.720;2023-02-01T03:00:05;4.27;;;3.00;;
3006;SDS011;1513;47.650;10.720;2023-02-01T03:02:55;5.37;;;3.47;;
3006;SDS011;1513;47.650;10.720;2023-02-01T03:05:41;3.90;;;2.60;;
3006;SDS011;1513;47.650;10.720;2023-02-01T03:08:14;6.13;;;3.00;;
3006;SDS011;1513;47.650;10.720;2023-02-01T03:18:48;4.40;;;2.43;;
3006;SDS011;1513;47.650;10.720;2023-02-01T03:24:08;2.80;;;2.50;;
3006;SDS011;1513;47.650;10.720;2023-02-01T03:26:55;3.57;;;2.43;;
3006;SDS011;1513;47.650;10.720;2023-02-01T03:29:27;5.10;;;2.50;;
3006;SDS011;1513;47.650;10.720;2023-02-01T03:32:04;3.63;;;2.10;;
3006;SDS011;1513;47.650;10.720;2023-02-01T03:34:30;5.00;;;2.80;;
3006;SDS011;1513;47.650;10.720;2023-02-01T03:36:58;3.80;;;2.50;;
3006;SDS011;1513;47.650;10.720;2023-02-01T03:42:04;6.30;;;2.90;;
3006;SDS011;1513;47.650;10.720;2023-02-01T03:44:47;5.27;;;2.93;;
3006;SDS011;1513;47.650;10.720;2023-02-01T03:47:49;6.27;;;2.70;;
3006;SDS011;1513;47.650;10.720;2023-02-01T03:50:19;4.80;;;2.90;;
3006;SDS011;1513;47.650;10.720;2023-02-01T03:52:51;3.73;;;2.43;;
3006;SDS011;1513;47.650;10.720;2023-02-01T03:55:27;3.03;;;2.17;;
3006;SDS011;1513;47.650;10.720;2023-02-01T03:58:16;3.87;;;2.70;;
3006;SDS011;1513;47.650;10.720;2023-02-01T04:00:44;3.57;;;2.17;;
3006;SDS011;1513;47.650;10.720;2023-02-01T04:03:26;3.40;;;2.60;;
3006;SDS011;1513;47.650;10.720;2023-02-01T04:05:53;7.47;;;3.33;;
3006;SDS011;1513;47.650;10.720;2023-02-01T04:08:24;4.27;;;2.50;;
3006;SDS011;1513;47.650;10.720;2023-02-01T04:10:50;4.90;;;3.00;;
3006;SDS011;1513;47.650;10.720;2023-02-01T04:13:15;3.90;;;2.20;;
3006;SDS011;1513;47.650;10.720;2023-02-01T04:15:41;2.60;;;2.40;;
3006;SDS011;1513;47.650;10.720;2023-02-01T04:18:08;4.97;;;2.83;;
3006;SDS011;1513;47.650;10.720;2023-02-01T04:20:34;5.00;;;2.80;;
3006;SDS011;1513;47.650;10.720;2023-02-01T04:22:59;3.70;;;2.77;;
3006;SDS011;1513;47.650;10.720;2023-02-01T04:25:27;5.30;;;2.80;;
3006;SDS011;1513;47.650;10.720;2023-02-01T04:27:54;3.73;;;2.00;;
3006;SDS011;1513;47.650;10.720;2023-02-01T04:30:20;4.57;;;2.30;;
3006;SDS011;1513;47.650;10.720;2023-02-01T04:32:46;2.87;;;2.47;;
3006;SDS011;1513;47.650;10.720;2023-02-01T04:35:12;8.17;;;2.37;;
3006;SDS011;1513;47.650;10.720;2023-02-01T04:37:38;7.03;;;2.83;;
3006;SDS011;1513;47.650;10.720;2023-02-01T04:40:04;4.23;;;2.33;;
3006;SDS011;1513;47.650;10.720;2023-02-01T04:42:30;4.00;;;2.10;;
3006;SDS011;1513;47.650;10.720;2023-02-01T04:44:56;5.13;;;2.70;;
3006;SDS011;1513;47.650;10.720;2023-02-01T04:47:22;3.40;;;2.23;;
3006;SDS011;1513;47.650;10.720;2023-02-01T04:49:48;6.80;;;2.50;;
3006;SDS011;1513;47.650;10.720;2023-02-01T04:52:13;3.50;;;2.40;;
3006;SDS011;1513;47.650;10.720;2023-02-01T04:54:39;5.10;;;2.67;;
3006;SDS011;1513;47.650;10.720;2023-02-01T04:57:05;4.60;;;2.70;;
3006;SDS011;1513;47.650;10.720;2023-02-01T04:59:31;3.20;;;2.23;;
3006;SDS011;1513;47.650;10.720;2023-02-01T05:01:57;3.33;;;1.97;;
3006;SDS011;1513;47.650;10.720;2023-02-01T05:04:22;2.27;;;2.00;;
3006;SDS011;1513;47.650;10.720;2023-02-01T05:06:48;3.30;;;2.27;;
3006;SDS011;1513;47.650;10.720;2023-02-01T05:09:14;4.17;;;2.00;;
3006;SDS011;1513;47.650;10.720;2023-02-01T05:11:41;4.17;;;2.40;;
3006;SDS011;1513;47.650;10.720;2023-02-01T05:14:25;3.23;;;1.80;;
3006;SDS011;1513;47.650;10.720;2023-02-01T05:16:51;4.70;;;2.10;;
3006;SDS011;1513;47.650;10.720;2023-02-01T05:19:17;2.20;;;1.90;;
3006;SDS011;1513;47.650;10.720;2023-02-01T05:21:43;3.00;;;2.37;;
3006;SDS011;1513;47.650;10.720;2023-02-01T05:24:09;3.70;;;2.10;;
3006;SDS011;1513;47.650;10.720;2023-02-01T05:26:35;5.27;;;2.10;;
3006;SDS011;1513;47.650;10.720;2023-02-01T05:29:02;4.03;;;2.70;;
3006;SDS011;1513;47.650;10.720;2023-02-01T05:31:29;2.83;;;1.80;;
3006;SDS011;1513;47.650;10.720;2023-02-01T05:33:54;3.63;;;2.07;;
3006;SDS011;1513;47.650;10.720;2023-02-01T05:36:20;4.30;;;2.00;;
3006;SDS011;1513;47.650;10.720;2023-02-01T05:38:46;2.60;;;1.80;;
3006;SDS011;1513;47.650;10.720;2023-02-01T05:41:12;2.70;;;2.40;;
3006;SDS011;1513;47.650;10.720;2023-02-01T05:43:38;2.30;;;1.93;;
3006;SDS011;1513;47.650;10.720;2023-02-01T05:46:04;3.63;;;2.00;;
3006;SDS011;1513;47.650;10.720;2023-02-01T05:48:30;2.73;;;2.17;;
3006;SDS011;1513;47.650;10.720;2023-02-01T05:50:56;4.90;;;2.90;;
3006;SDS011;1513;47.650;10.720;2023-02-01T05:53:22;4.00;;;2.37;;
3006;SDS011;1513;47.650;10.720;2023-02-01T05:55:48;4.13;;;2.43;;
3006;SDS011;1513;47.650;10.720;2023-02-01T05:58:13;3.70;;;2.50;;
3006;SDS011;1513;47.650;10.720;2023-02-01T06:00:39;3.20;;;2.60;;
3006;SDS011;1513;47.650;10.720;2023-02-01T06:03:05;5.50;;;4.10;;
3006;SDS011;1513;47.650;10.720;2023-02-01T06:05:31;6.23;;;3.30;;
3006;SDS011;1513;47.650;10.720;2023-02-01T06:07:57;6.33;;;3.33;;
3006;SDS011;1513;47.650;10.720;2023-02-01T06:10:23;6.10;;;3.80;;
3006;SDS011;1513;47.650;10.720;2023-02-01T06:12:49;5.67;;;3.50;;
3006;SDS011;1513;47.650;10.720;2023-02-01T06:15:15;5.67;;;2.93;;
3006;SDS011;1513;47.650;10.720;2023-02-01T06:17:42;3.67;;;3.20;;
3006;SDS011;1513;47.650;10.720;2023-02-01T06:20:10;6.93;;;3.93;;
3006;SDS011;1513;47.650;10.720;2023-02-01T06:22:38;10.33;;;4.37;;
3006;SDS011;1513;47.650;10.720;2023-02-01T06:25:05;6.03;;;2.90;;
3006;SDS011;1513;47.650;10.720;2023-02-01T06:27:34;4.87;;;2.90;;
3006;SDS011;1513;47.650;10.720;2023-02-01T06:30:00;6.20;;;3.40;;
3006;SDS011;1513;47.650;10.720;2023-02-01T06:32:28;5.80;;;2.73;;
3006;SDS011;1513;47.650;10.720;2023-02-01T06:34:54;6.60;;;2.57;;
3006;SDS011;1513;47.650;10.720;2023-02-01T06:37:21;9.73;;;4.10;;
3006;SDS011;1513;47.650;10.720;2023-02-01T06:39:49;6.97;;;3.83;;
3006;SDS011;1513;47.650;10.720;2023-02-01T06:42:16;5.47;;;2.97;;
3006;SDS011;1513;47.650;10.720;2023-02-01T06:44:41;4.87;;;3.20;;
3006;SDS011;1513;47.650;10.720;2023-02-01T06:47:07;12.50;;;5.37;;
3006;SDS011;1513;47.650;10.720;2023-02-01T06:49:33;7.77;;;4.53;;
3006;SDS011;1513;47.650;10.720;2023-02-01T06:51:59;13.37;;;6.03;;
3006;SDS011;1513;47.650;10.720;2023-02-01T06:54:28;13.27;;;6.57;;
3006;SDS011;1513;47.650;10.720;2023-02-01T06:56:57;18.77;;;6.80;;
3006;SDS011;1513;47.650;10.720;2023-02-01T06:59:23;15.83;;;7.03;;
3006;SDS011;1513;47.650;10.720;2023-02-01T07:01:49;22.60;;;9.20;;
3006;SDS011;1513;47.650;10.720;2023-02-01T07:04:15;25.37;;;8.57;;
3006;SDS011;1513;47.650;10.720;2023-02-01T07:06:40;7.50;;;4.00;;
3006;SDS011;1513;47.650;10.720;2023-02-01T07:09:07;8.77;;;5.00;;
3006;SDS011;1513;47.650;10.720;2023-02-01T07:11:33;16.50;;;6.83;;
3006;SDS011;1513;47.650;10.720;2023-02-01T07:13:59;8.23;;;4.40;;
3006;SDS011;1513;47.650;10.720;2023-02-01T07:16:25;13.40;;;6.77;;
3006;SDS011;1513;47.650;10.720;2023-02-01T07:18:52;8.30;;;4.70;;
3006;SDS011;1513;47.650;10.720;2023-02-01T07:21:18;6.97;;;4.00;;
3006;SDS011;1513;47.650;10.720;2023-02-01T07:23:45;9.90;;;5.80;;
3006;SDS011;1513;47.650;10.720;2023-02-01T07:26:11;6.50;;;4.00;;
3006;SDS011;1513;47.650;10.720;2023-02-01T07:28:39;7.00;;;4.03;;
3006;SDS011;1513;47.650;10.720;2023-02-01T07:31:10;8.50;;;4.93;;
3006;SDS011;1513;47.650;10.720;2023-02-01T07:33:40;6.23;;;3.73;;
3006;SDS011;1513;47.650;10.720;2023-02-01T07:36:07;9.10;;;5.43;;
3006;SDS011;1513;47.650;10.720;2023-02-01T07:38:37;4.63;;;3.57;;
3006;SDS011;1513;47.650;10.720;2023-02-01T07:41:04;7.90;;;4.20;;
3006;SDS011;1513;47.650;10.720;2023-02-01T07:43:30;11.00;;;6.97;;
3006;SDS011;1513;47.650;10.720;2023-02-01T07:45:58;7.33;;;4.57;;
3006;SDS011;1513;47.650;10.720;2023-02-01T07:48:24;9.80;;;5.50;;
3006;SDS011;1513;47.650;10.720;2023-02-01T07:50:58;9.87;;;4.90;;
3006;SDS011;1513;47.650;10.720;2023-02-01T07:53:30;9.80;;;5.30;;
3006;SDS011;1513;47.650;10.720;2023-02-01T07:55:57;6.23;;;4.33;;
3006;SDS011;1513;47.650;10.720;2023-02-01T07:58:24;4.97;;;3.50;;
3006;SDS011;1513;47.650;10.720;2023-02-01T08:00:50;5.80;;;3.90;;
3006;SDS011;1513;47.650;10.720;2023-02-01T08:03:36;5.47;;;3.07;;
3006;SDS011;1513;47.650;10.720;2023-02-01T08:06:02;9.90;;;4.87;;
3006;SDS011;1513;47.650;10.720;2023-02-01T08:08:29;5.10;;;3.00;;
3006;SDS011;1513;47.650;10.720;2023-02-01T08:10:58;3.80;;;2.43;;
3006;SDS011;1513;47.650;10.720;2023-02-01T08:13:27;3.50;;;2.70;;
3006;SDS011;1513;47.650;10.720;2023-02-01T08:15:57;4.80;;;2.90;;
3006;SDS011;1513;47.650;10.720;2023-02-01T08:18:24;3.47;;;2.60;;
3006;SDS011;1513;47.650;10.720;2023-02-01T08:20:50;4.23;;;2.60;;
3006;SDS011;1513;47.650;10.720;2023-02-01T08:23:16;3.80;;;2.60;;
3006;SDS011;1513;47.650;10.720;2023-02-01T08:25:42;5.00;;;3.07;;
3006;SDS011;1513;47.650;10.720;2023-02-01T08:28:09;3.47;;;2.60;;
3006;SDS011;1513;47.650;10.720;2023-02-01T08:30:38;3.40;;;2.60;;
3006;SDS011;1513;47.650;10.720;2023-02-01T08:33:07;6.20;;;3.30;;
3006;SDS011;1513;47.650;10.720;2023-02-01T08:35:37;7.43;;;2.57;;
3006;SDS011;1513;47.650;10.720;2023-02-01T08:38:04;11.87;;;5.70;;
3006;SDS011;1513;47.650;10.720;2023-02-01T08:40:30;17.40;;;8.57;;
3006;SDS011;1513;47.650;10.720;2023-02-01T08:42:57;31.23;;;13.60;;
3006;SDS011;1513;47.650;10.720;2023-02-01T08:45:25;21.83;;;7.37;;
3006;SDS011;1513;47.650;10.720;2023-02-01T08:47:54;30.17;;;13.40;;
3006;SDS011;1513;47.650;10.720;2023-02-01T08:50:21;7.20;;;3.73;;
3006;SDS011;1513;47.650;10.720;2023-02-01T08:52:48;12.77;;;5.53;;
3006;SDS011;1513;47.650;10.720;2023-02-01T08:55:15;9.03;;;4.53;;
3006;SDS011;1513;47.650;10.720;2023-02-01T08:57:41;5.90;;;3.10;;
3006;SDS011;1513;47.650;10.720;2023-02-01T09:00:08;8.20;;;5.47;;
3006;SDS011;1513;47.650;10.720;2023-02-01T09:02:38;16.23;;;5.60;;
3006;SDS011;1513;47.650;10.720;2023-02-01T09:05:04;9.33;;;3.17;;
3006;SDS011;1513;47.650;10.720;2023-02-01T09:07:31;12.93;;;4.10;;
3006;SDS011;1513;47.650;10.720;2023-02-01T09:09:58;9.60;;;4.13;;
3006;SDS011;1513;47.650;10.720;2023-02-01T09:12:29;15.60;;;2.97;;
3006;SDS011;1513;47.650;10.720;2023-02-01T09:14:57;11.33;;;3.30;;
3006;SDS011;1513;47.650;10.720;2023-02-01T09:17:27;2.87;;;2.10;;
3006;SDS011;1513;47.650;10.720;2023-02-01T09:19:54;11.97;;;4.40;;
3006;SDS011;1513;47.650;10.720;2023-02-01T09:22:20;2.60;;;1.70;;
3006;SDS011;1513;47.650;10.720;2023-02-01T09:24:46;3.73;;;2.30;;
3006;SDS011;1513;47.650;10.720;2023-02-01T09:27:12;4.40;;;2.80;;
3006;SDS011;1513;47.650;10.720;2023-02-01T09:29:38;4.33;;;2.10;;
3006;SDS011;1513;47.650;10.720;2023-02-01T09:32:04;5.70;;;1.93;;
3006;SDS011;1513;47.650;10.720;2023-02-01T09:34:31;3.87;;;2.20;;
3006;SDS011;1513;47.650;10.720;2023-02-01T09:36:58;2.47;;;1.40;;
3006;SDS011;1513;47.650;10.720;2023-02-01T09:39:24;2.33;;;1.30;;
3006;SDS011;1513;47.650;10.720;2023-02-01T09:47:24;6.53;;;3.40;;
3006;SDS011;1513;47.650;10.720;2023-02-01T09:55:43;2.70;;;2.47;;
3006;SDS011;1513;47.650;10.720;2023-02-01T09:58:30;2.30;;;1.80;;
3006;SDS011;1513;47.650;10.720;2023-02-01T10:01:20;1.60;;;1.50;;
3006;SDS011;1513;47.650;10.720;2023-02-01T10:03:49;1.70;;;1.40;;
3006;SDS011;1513;47.650;10.720;2023-02-01T10:11:30;3.00;;;1.70;;
3006;SDS011;1513;47.650;10.720;2023-02-01T10:28:46;3.23;;;2.17;;
3006;SDS011;1513;47.650;10.720;2023-02-01T10:31:20;2.67;;;2.43;;
3006;SDS011;1513;47.650;10.720;2023-02-01T10:33:52;2.63;;;2.13;;
3006;SDS011;1513;47.650;10.720;2023-02-01T10:36:25;4.33;;;2.30;;
3006;SDS011;1513;47.650;10.720;2023-02-01T10:39:00;2.00;;;1.90;;
3006;SDS011;1513;47.650;10.720;2023-02-01T10:41:35;7.10;;;2.67;;
3006;SDS011;1513;47.650;10.720;2023-02-01T10:44:05;3.90;;;2.50;;
3006;SDS011;1513;47.650;10.720;2023-02-01T10:46:37;5.40;;;3.20;;
3006;SDS011;1513;47.650;10.720;2023-02-01T10:49:04;3.47;;;2.83;;
3006;SDS011;1513;47.650;10.720;2023-02-01T10:54:31;2.33;;;2.13;;
3006;SDS011;1513;47.650;10.720;2023-02-01T10:57:24;4.60;;;2.37;;
3006;SDS011;1513;47.650;10.720;2023-02-01T10:59:53;2.93;;;2.00;;
3006;SDS011;1513;47.650;10.720;2023-02-01T11:02:21;4.40;;;2.70;;
3006;SDS011;1513;47.650;10.720;2023-02-01T11:05:07;3.97;;;2.43;;
3006;SDS011;1513;47.650;10.720;2023-02-01T11:07:37;3.60;;;3.20;;
3006;SDS011;1513;47.650;10.720;2023-02-01T11:10:05;4.43;;;3.30;;
3006;SDS011;1513;47.650;10.720;2023-02-01T11:12:33;6.83;;;4.27;;
3006;SDS011;1513;47.650;10.720;2023-02-01T11:17:48;2.87;;;2.40;;
3006;SDS011;1513;47.650;10.720;2023-02-01T11:22:57;6.17;;;3.73;;
3006;SDS011;1513;47.650;10.720;2023-02-01T11:25:23;2.27;;;2.10;;
3006;SDS011;1513;47.650;10.720;2023-02-01T11:27:50;3.37;;;1.80;;
3006;SDS011;1513;47.650;10.720;2023-02-01T11:30:41;3.33;;;2.10;;
3006;SDS011;1513;47.650;10.720;2023-02-01T11:33:13;1.83;;;1.60;;
3006;SDS011;1513;47.650;10.720;2023-02-01T11:35:43;1.80;;;1.70;;
3006;SDS011;1513;47.650;10.720;2023-02-01T11:38:11;3.90;;;2.20;;
3006;SDS011;1513;47.650;10.720;2023-02-01T11:40:54;3.20;;;2.10;;
3006;SDS011;1513;47.650;10.720;2023-02-01T11:48:21;2.80;;;1.70;;
3006;SDS011;1513;47.650;10.720;2023-02-01T12:02:48;8.40;;;3.43;;
3006;SDS011;1513;47.650;10.720;2023-02-01T12:11:48;5.27;;;2.83;;
3006;SDS011;1513;47.650;10.720;2023-02-01T12:43:38;2.73;;;2.53;;
3006;SDS011;1513;47.650;10.720;2023-02-01T12:46:19;3.77;;;2.70;;
3006;SDS011;1513;47.650;10.720;2023-02-01T12:49:47;3.17;;;2.50;;
3006;SDS011;1513;47.650;10.720;2023-02-01T12:51:55;2.17;;;2.03;;
3006;SDS011;1513;47.650;10.720;2023-02-01T12:54:39;4.10;;;2.43;;
3006;SDS011;1513;47.650;10.720;2023-02-01T12:57:23;5.63;;;3.40;;
3006;SDS011;1513;47.650;10.720;2023-02-01T13:05:31;6.10;;;2.90;;
3006;SDS011;1513;47.650;10.720;2023-02-01T13:08:17;5.10;;;3.17;;
3006;SDS011;1513;47.650;10.720;2023-02-01T13:10:59;2.17;;;1.97;;
3006;SDS011;1513;47.650;10.720;2023-02-01T13:13:32;2.27;;;2.07;;
3006;SDS011;1513;47.650;10.720;2023-02-01T13:16:14;2.50;;;1.73;;
3006;SDS011;1513;47.650;10.720;2023-02-01T13:19:05;2.97;;;2.30;;
3006;SDS011;1513;47.650;10.720;2023-02-01T13:21:58;2.70;;;2.30;;
3006;SDS011;1513;47.650;10.720;2023-02-01T13:27:04;2.43;;;2.23;;
3006;SDS011;1513;47.650;10.720;2023-02-01T13:29:30;7.80;;;3.50;;
3006;SDS011;1513;47.650;10.720;2023-02-01T13:32:21;2.17;;;1.97;;
3006;SDS011;1513;47.650;10.720;2023-02-01T13:40:44;4.53;;;2.87;;
3006;SDS011;1513;47.650;10.720;2023-02-01T13:43:29;2.70;;;2.40;;
3006;SDS011;1513;47.650;10.720;2023-02-01T13:45:57;5.47;;;3.23;;
3006;SDS011;1513;47.650;10.720;2023-02-01T13:51:04;5.23;;;3.30;;
3006;SDS011;1513;47.650;10.720;2023-02-01T13:53:34;5.97;;;3.43;;
3006;SDS011;1513;47.650;10.720;2023-02-01T13:56:03;4.33;;;2.73;;
3006;SDS011;1513;47.650;10.720;2023-02-01T13:58:46;3.20;;;2.70;;
3006;SDS011;1513;47.650;10.720;2023-02-01T14:03:48;10.83;;;5.10;;
3006;SDS011;1513;47.650;10.720;2023-02-01T14:16:44;9.73;;;4.27;;
3006;SDS011;1513;47.650;10.720;2023-02-01T14:19:27;6.07;;;4.27;;
3006;SDS011;1513;47.650;10.720;2023-02-01T14:22:32;7.77;;;5.10;;
3006;SDS011;1513;47.650;10.720;2023-02-01T14:24:52;6.13;;;4.10;;
3006;SDS011;1513;47.650;10.720;2023-02-01T14:27:26;6.63;;;4.30;;
3006;SDS011;1513;47.650;10.720;2023-02-01T14:29:59;8.43;;;5.20;;
3006;SDS011;1513;47.650;10.720;2023-02-01T14:32:36;11.37;;;6.67;;
3006;SDS011;1513;47.650;10.720;2023-02-01T14:35:20;12.10;;;5.63;;
3006;SDS011;1513;47.650;10.720;2023-02-01T14:37:51;8.33;;;4.80;;
3006;SDS011;1513;47.650;10.720;2023-02-01T14:40:25;9.83;;;3.93;;
3006;SDS011;1513;47.650;10.720;2023-02-01T14:42:53;17.43;;;6.67;;
3006;SDS011;1513;47.650;10.720;2023-02-01T14:47:54;14.83;;;6.67;;
3006;SDS011;1513;47.650;10.720;2023-02-01T14:50:44;10.90;;;6.30;;
3006;SDS011;1513;47.650;10.720;2023-02-01T14:58:42;13.90;;;6.67;;
3006;SDS011;1513;47.650;10.720;2023-02-01T15:03:56;5.80;;;3.00;;
3006;SDS011;1513;47.650;10.720;2023-02-01T15:06:53;9.30;;;4.13;;
3006;SDS011;1513;47.650;10.720;2023-02-01T15:09:29;3.67;;;2.93;;
3006;SDS011;1513;47.650;10.720;2023-02-01T15:12:25;11.83;;;4.83;;
3006;SDS011;1513;47.650;10.720;2023-02-01T15:15:05;6.80;;;3.90;;
3006;SDS011;1513;47.650;10.720;2023-02-01T15:17:48;6.87;;;4.27;;
3006;SDS011;1513;47.650;10.720;2023-02-01T15:20:26;6.00;;;3.90;;
3006;SDS011;1513;47.650;10.720;2023-02-01T15:22:58;8.60;;;5.20;;
3006;SDS011;1513;47.650;10.720;2023-02-01T15:25:27;20.27;;;7.20;;
3006;SDS011;1513;47.650;10.720;2023-02-01T15:27:56;13.83;;;6.50;;
3006;SDS011;1513;47.650;10.720;2023-02-01T15:33:06;16.13;;;7.80;;
3006;SDS011;1513;47.650;10.720;2023-02-01T15:35:44;13.20;;;6.77;;
3006;SDS011;1513;47.650;10.720;2023-02-01T15:43:40;20.70;;;8.80;;
3006;SDS011;1513;47.650;10.720;2023-02-01T15:46:33;10.40;;;5.50;;
3006;SDS011;1513;47.650;10.720;2023-02-01T15:49:25;10.83;;;4.50;;
3006;SDS011;1513;47.650;10.720;2023-02-01T15:52:02;7.80;;;4.80;;
3006;SDS011;1513;47.650;10.720;2023-02-01T15:54:56;8.90;;;5.10;;
3006;SDS011;1513;47.650;10.720;2023-02-01T15:57:27;9.13;;;3.87;;
3006;SDS011;1513;47.650;10.720;2023-02-01T16:00:05;9.03;;;4.97;;
3006;SDS011;1513;47.650;10.720;2023-02-01T16:02:54;9.00;;;4.80;;
3006;SDS011;1513;47.650;10.720;2023-02-01T16:10:47;14.93;;;5.53;;
3006;SDS011;1513;47.650;10.720;2023-02-01T16:13:17;8.23;;;4.27;;
3006;SDS011;1513;47.650;10.720;2023-02-01T16:15:45;7.13;;;4.53;;
3006;SDS011;1513;47.650;10.720;2023-02-01T16:18:12;11.03;;;5.90;;
3006;SDS011;1513;47.650;10.720;2023-02-01T16:20:39;10.67;;;6.00;;
3006;SDS011;1513;47.650;10.720;2023-02-01T16:23:07;18.40;;;8.87;;
3006;SDS011;1513;47.650;10.720;2023-02-01T16:25:35;23.87;;;7.60;;
3006;SDS011;1513;47.650;10.720;2023-02-01T16:28:02;21.57;;;8.13;;
3006;SDS011;1513;47.650;10.720;2023-02-01T16:30:28;12.40;;;7.37;;
3006;SDS011;1513;47.650;10.720;2023-02-01T16:32:54;12.13;;;6.23;;
3006;SDS011;1513;47.650;10.720;2023-02-01T16:35:37;11.83;;;5.77;;
3006;SDS011;1513;47.650;10.720;2023-02-01T16:38:04;10.00;;;5.23;;
3006;SDS011;1513;47.650;10.720;2023-02-01T16:40:37;16.17;;;6.13;;
3006;SDS011;1513;47.650;10.720;2023-02-01T16:43:17;8.37;;;5.40;;
3006;SDS011;1513;47.650;10.720;2023-02-01T16:45:46;10.83;;;4.97;;
3006;SDS011;1513;47.650;10.720;2023-02-01T16:48:26;9.20;;;3.80;;
3006;SDS011;1513;47.650;10.720;2023-02-01T16:51:02;12.60;;;3.90;;
3006;SDS011;1513;47.650;10.720;2023-02-01T16:53:34;9.17;;;4.20;;
3006;SDS011;1513;47.650;10.720;2023-02-01T16:56:00;6.53;;;3.17;;
3006;SDS011;1513;47.650;10.720;2023-02-01T16:58:27;10.03;;;2.83;;
3006;SDS011;1513;47.650;10.720;2023-02-01T17:00:53;11.25;;;3.70;;
3006;SDS011;1513;47.650;10.720;2023-02-01T17:03:20;5.33;;;3.33;;
3006;SDS011;1513;47.650;10.720;2023-02-01T17:05:47;15.17;;;3.20;;
3006;SDS011;1513;47.650;10.720;2023-02-01T17:08:19;10.60;;;3.70;;
3006;SDS011;1513;47.650;10.720;2023-02-01T17:10:54;4.73;;;2.87;;
3006;SDS011;1513;47.650;10.720;2023-02-01T17:13:20;14.93;;;4.00;;
3006;SDS011;1513;47.650;10.720;2023-02-01T17:15:49;14.67;;;4.50;;
3006;SDS011;1513;47.650;10.720;2023-02-01T17:18:31;12.47;;;4.30;;
3006;SDS011;1513;47.650;10.720;2023-02-01T17:21:00;8.80;;;3.30;;
3006;SDS011;1513;47.650;10.720;2023-02-01T17:23:28;6.73;;;4.40;;
3006;SDS011;1513;47.650;10.720;2023-02-01T17:25:55;18.30;;;3.93;;
3006;SDS011;1513;47.650;10.720;2023-02-01T17:28:22;20.63;;;3.50;;
3006;SDS011;1513;47.650;10.720;2023-02-01T17:30:48;11.53;;;4.67;;
3006;SDS011;1513;47.650;10.720;2023-02-01T17:33:25;11.67;;;5.40;;
3006;SDS011;1513;47.650;10.720;2023-02-01T17:35:58;12.00;;;3.97;;
3006;SDS011;1513;47.650;10.720;2023-02-01T17:38:24;9.77;;;4.27;;
3006;SDS011;1513;47.650;10.720;2023-02-01T17:40:51;8.30;;;3.60;;
3006;SDS011;1513;47.650;10.720;2023-02-01T17:43:21;20.40;;;5.67;;
3006;SDS011;1513;47.650;10.720;2023-02-01T17:45:53;6.87;;;3.20;;
3006;SDS011;1513;47.650;10.720;2023-02-01T17:48:21;5.93;;;3.93;;
3006;SDS011;1513;47.650;10.720;2023-02-01T17:50:48;12.63;;;4.47;;
3006;SDS011;1513;47.650;10.720;2023-02-01T17:53:19;10.93;;;3.57;;
3006;SDS011;1513;47.650;10.720;2023-02-01T17:55:48;16.07;;;4.17;;
3006;SDS011;1513;47.650;10.720;2023-02-01T17:58:15;13.27;;;3.77;;
3006;SDS011;1513;47.650;10.720;2023-02-01T18:00:42;11.53;;;4.97;;
3006;SDS011;1513;47.650;10.720;2023-02-01T18:03:26;9.27;;;2.90;;
3006;SDS011;1513;47.650;10.720;2023-02-01T18:05:58;10.93;;;3.53;;
3006;SDS011;1513;47.650;10.720;2023-02-01T18:08:26;5.53;;;3.30;;
3006;SDS011;1513;47.650;10.720;2023-02-01T18:10:55;8.67;;;3.77;;
3006;SDS011;1513;47.650;10.720;2023-02-01T18:13:25;28.90;;;4.13;;
3006;SDS011;1513;47.650;10.720;2023-02-01T18:15:56;8.27;;;3.93;;
3006;SDS011;1513;47.650;10.720;2023-02-01T18:18:26;8.30;;;3.70;;
3006;SDS011;1513;47.650;10.720;2023-02-01T18:20:55;6.60;;;3.50;;
3006;SDS011;1513;47.650;10.720;2023-02-01T18:23:22;8.20;;;3.80;;
3006;SDS011;1513;47.650;10.720;2023-02-01T18:25:48;8.60;;;3.83;;
3006;SDS011;1513;47.650;10.720;2023-02-01T18:28:16;8.10;;;4.33;;
3006;SDS011;1513;47.650;10.720;2023-02-01T18:30:45;13.30;;;4.93;;
3006;SDS011;1513;47.650;10.720;2023-02-01T18:33:15;19.73;;;5.27;;
3006;SDS011;1513;47.650;10.720;2023-02-01T18:35:42;14.93;;;4.90;;